sensor_id;sensor_type;location;lat;lon;timestamp;P1;durP1;ratioP1;P2;durP2;ratioP2
2998;SDS011;1509;51.964;7.628;2022-07-23T00:01:19;12.10;;;6.90;;
2998;SDS011;1509;51.964;7.628;2022-07-23T00:03:45;9.23;;;6.50;;
2998;SDS011;1509;51.964;7.628;2022-07-23T00:06:11;13.40;;;7.80;;
2998;SDS011;1509;51.964;7.628;2022-07-23T00:08:37;10.87;;;6.30;;
2998;SDS011;1509;51.964;7.628;2022-07-23T00:11:02;11.73;;;7.77;;
2998;SDS011;1509;51.964;7.628;2022-07-23T00:13:28;10.77;;;7.83;;
2998;SDS011;1509;51.964;7.628;2022-07-23T00:15:54;11.60;;;8.50;;
2998;SDS011;1509;51.964;7.628;2022-07-23T00:18:20;12.53;;;8.17;;
2998;SDS011;1509;51.964;7.628;2022-07-23T00:20:46;15.70;;;9.50;;
2998;SDS011;1509;51.964;7.628;2022-07-23T00:23:12;8.73;;;7.23;;
2998;SDS011;1509;51.964;7.628;2022-07-23T00:25:38;11.80;;;8.30;;
2998;SDS011;1509;51.964;7.628;2022-07-23T00:28:04;12.73;;;9.27;;
2998;SDS011;1509;51.964;7.628;2022-07-23T00:30:32;11.80;;;8.70;;
2998;SDS011;1509;51.964;7.628;2022-07-23T00:32:59;10.33;;;7.97;;
2998;SDS011;1509;51.964;7.628;2022-07-23T00:35:30;14.87;;;9.43;;
2998;SDS011;1509;51.964;7.628;2022-07-23T00:37:59;16.20;;;9.33;;
2998;SDS011;1509;51.964;7.628;2022-07-23T00:40:26;15.10;;;10.93;;
2998;SDS011;1509;51.964;7.628;2022-07-23T00:42:52;16.10;;;9.90;;
2998;SDS011;1509;51.964;7.628;2022-07-23T00:45:18;13.93;;;10.13;;
2998;SDS011;1509;51.964;7.628;2022-07-23T00:47:44;15.00;;;10.37;;
2998;SDS011;1509;51.964;7.628;2022-07-23T00:50:10;19.17;;;11.67;;
2998;SDS011;1509;51.964;7.628;2022-07-23T00:52:36;16.47;;;11.20;;
2998;SDS011;1509;51.964;7.628;2022-07-23T00:55:03;18.63;;;10.97;;
2998;SDS011;1509;51.964;7.628;2022-07-23T00:57:30;19.37;;;10.60;;
2998;SDS011;1509;51.964;7.628;2022-07-23T00:59:56;14.47;;;10.60;;
2998;SDS011;1509;51.964;7.628;2022-07-23T01:02:23;17.63;;;11.50;;
2998;SDS011;1509;51.964;7.628;2022-07-23T01:04:51;16.53;;;10.87;;
2998;SDS011;1509;51.964;7.628;2022-07-23T01:07:17;16.03;;;11.70;;
2998;SDS011;1509;51.964;7.628;2022-07-23T01:09:44;13.93;;;11.10;;
2998;SDS011;1509;51.964;7.628;2022-07-23T01:12:10;16.20;;;12.20;;
2998;SDS011;1509;51.964;7.628;2022-07-23T01:14:36;16.00;;;11.40;;
2998;SDS011;1509;51.964;7.628;2022-07-23T01:17:02;16.40;;;12.03;;
2998;SDS011;1509;51.964;7.628;2022-07-23T01:19:28;18.87;;;11.60;;
2998;SDS011;1509;51.964;7.628;2022-07-23T01:21:53;14.30;;;10.50;;
2998;SDS011;1509;51.964;7.628;2022-07-23T01:24:20;19.53;;;10.60;;
2998;SDS011;1509;51.964;7.628;2022-07-23T01:26:46;15.77;;;11.60;;
2998;SDS011;1509;51.964;7.628;2022-07-23T01:29:13;18.13;;;13.60;;
2998;SDS011;1509;51.964;7.628;2022-07-23T01:31:40;15.27;;;11.03;;
2998;SDS011;1509;51.964;7.628;2022-07-23T01:34:06;19.73;;;13.10;;
2998;SDS011;1509;51.964;7.628;2022-07-23T01:36:32;17.23;;;12.00;;
2998;SDS011;1509;51.964;7.628;2022-07-23T01:38:58;17.53;;;12.37;;
2998;SDS011;1509;51.964;7.628;2022-07-23T01:41:27;15.20;;;11.20;;
2998;SDS011;1509;51.964;7.628;2022-07-23T01:43:53;15.13;;;11.47;;
2998;SDS011;1509;51.964;7.628;2022-07-23T01:46:18;21.27;;;13.53;;
2998;SDS011;1509;51.964;7.628;2022-07-23T01:48:44;14.80;;;12.43;;
2998;SDS011;1509;51.964;7.628;2022-07-23T01:51:10;17.27;;;11.90;;
2998;SDS011;1509;51.964;7.628;2022-07-23T01:53:35;20.17;;;10.90;;
2998;SDS011;1509;51.964;7.628;2022-07-23T01:56:01;19.27;;;11.10;;
2998;SDS011;1509;51.964;7.628;2022-07-23T01:58:28;18.20;;;11.83;;
2998;SDS011;1509;51.964;7.628;2022-07-23T02:00:54;16.40;;;12.50;;
2998;SDS011;1509;51.964;7.628;2022-07-23T02:03:20;19.37;;;12.30;;
2998;SDS011;1509;51.964;7.628;2022-07-23T02:05:45;18.03;;;11.47;;
2998;SDS011;1509;51.964;7.628;2022-07-23T02:08:11;15.50;;;11.93;;
2998;SDS011;1509;51.964;7.628;2022-07-23T02:10:37;18.97;;;13.10;;
2998;SDS011;1509;51.964;7.628;2022-07-23T02:13:02;16.07;;;11.03;;
2998;SDS011;1509;51.964;7.628;2022-07-23T02:15:28;20.20;;;11.73;;
2998;SDS011;1509;51.964;7.628;2022-07-23T02:17:54;16.47;;;11.50;;
2998;SDS011;1509;51.964;7.628;2022-07-23T02:20:21;18.90;;;11.77;;
2998;SDS011;1509;51.964;7.628;2022-07-23T02:22:46;19.67;;;10.47;;
2998;SDS011;1509;51.964;7.628;2022-07-23T02:25:12;21.93;;;12.30;;
2998;SDS011;1509;51.964;7.628;2022-07-23T02:27:38;16.63;;;12.70;;
2998;SDS011;1509;51.964;7.628;2022-07-23T02:30:04;14.37;;;11.10;;
2998;SDS011;1509;51.964;7.628;2022-07-23T02:32:30;15.33;;;10.70;;
2998;SDS011;1509;51.964;7.628;2022-07-23T02:34:56;14.20;;;12.37;;
2998;SDS011;1509;51.964;7.628;2022-07-23T02:37:21;16.30;;;11.23;;
2998;SDS011;1509;51.964;7.628;2022-07-23T02:39:47;20.03;;;11.83;;
2998;SDS011;1509;51.964;7.628;2022-07-23T02:42:13;19.43;;;12.80;;
2998;SDS011;1509;51.964;7.628;2022-07-23T02:44:39;14.90;;;10.67;;
2998;SDS011;1509;51.964;7.628;2022-07-23T02:47:05;16.07;;;10.93;;
2998;SDS011;1509;51.964;7.628;2022-07-23T02:49:31;15.00;;;10.83;;
2998;SDS011;1509;51.964;7.628;2022-07-23T02:51:59;14.83;;;11.47;;
2998;SDS011;1509;51.964;7.628;2022-07-23T02:54:25;15.53;;;11.60;;
2998;SDS011;1509;51.964;7.628;2022-07-23T02:56:50;21.60;;;11.50;;
2998;SDS011;1509;51.964;7.628;2022-07-23T02:59:16;15.73;;;11.63;;
2998;SDS011;1509;51.964;7.628;2022-07-23T03:01:42;16.87;;;11.23;;
2998;SDS011;1509;51.964;7.628;2022-07-23T03:04:09;17.20;;;11.17;;
2998;SDS011;1509;51.964;7.628;2022-07-23T03:06:35;15.10;;;12.03;;
2998;SDS011;1509;51.964;7.628;2022-07-23T03:09:01;21.17;;;12.20;;
2998;SDS011;1509;51.964;7.628;2022-07-23T03:11:27;17.03;;;11.50;;
2998;SDS011;1509;51.964;7.628;2022-07-23T03:13:53;17.60;;;11.80;;
2998;SDS011;1509;51.964;7.628;2022-07-23T03:16:19;18.70;;;12.40;;
2998;SDS011;1509;51.964;7.628;2022-07-23T03:18:44;17.70;;;11.53;;
2998;SDS011;1509;51.964;7.628;2022-07-23T03:21:10;20.30;;;11.70;;
2998;SDS011;1509;51.964;7.628;2022-07-23T03:23:36;15.13;;;9.80;;
2998;SDS011;1509;51.964;7.628;2022-07-23T03:26:01;16.20;;;11.80;;
2998;SDS011;1509;51.964;7.628;2022-07-23T03:28:27;17.90;;;10.90;;
2998;SDS011;1509;51.964;7.628;2022-07-23T03:30:53;17.80;;;11.50;;
2998;SDS011;1509;51.964;7.628;2022-07-23T03:33:19;14.03;;;10.63;;
2998;SDS011;1509;51.964;7.628;2022-07-23T03:35:46;15.60;;;10.40;;
2998;SDS011;1509;51.964;7.628;2022-07-23T03:38:12;14.67;;;10.53;;
2998;SDS011;1509;51.964;7.628;2022-07-23T03:40:38;13.20;;;10.33;;
2998;SDS011;1509;51.964;7.628;2022-07-23T03:43:04;16.63;;;10.50;;
2998;SDS011;1509;51.964;7.628;2022-07-23T03:45:29;17.23;;;9.97;;
2998;SDS011;1509;51.964;7.628;2022-07-23T03:47:56;13.63;;;10.07;;
2998;SDS011;1509;51.964;7.628;2022-07-23T03:50:22;18.80;;;11.53;;
2998;SDS011;1509;51.964;7.628;2022-07-23T03:52:48;14.90;;;10.40;;
2998;SDS011;1509;51.964;7.628;2022-07-23T03:55:14;17.10;;;10.30;;
2998;SDS011;1509;51.964;7.628;2022-07-23T03:57:40;16.80;;;10.80;;
2998;SDS011;1509;51.964;7.628;2022-07-23T04:00:07;15.60;;;11.30;;
2998;SDS011;1509;51.964;7.628;2022-07-23T04:02:34;15.37;;;10.13;;
2998;SDS011;1509;51.964;7.628;2022-07-23T04:05:01;19.60;;;9.73;;
2998;SDS011;1509;51.964;7.628;2022-07-23T04:07:26;16.67;;;11.80;;
2998;SDS011;1509;51.964;7.628;2022-07-23T04:09:52;14.77;;;11.53;;
2998;SDS011;1509;51.964;7.628;2022-07-23T04:12:18;17.10;;;10.07;;
2998;SDS011;1509;51.964;7.628;2022-07-23T04:14:44;20.00;;;10.60;;
2998;SDS011;1509;51.964;7.628;2022-07-23T04:17:10;15.00;;;8.80;;
2998;SDS011;1509;51.964;7.628;2022-07-23T04:19:37;13.67;;;9.87;;
2998;SDS011;1509;51.964;7.628;2022-07-23T04:22:06;14.50;;;10.43;;
2998;SDS011;1509;51.964;7.628;2022-07-23T04:24:32;14.27;;;10.47;;
2998;SDS011;1509;51.964;7.628;2022-07-23T04:26:58;19.83;;;11.63;;
2998;SDS011;1509;51.964;7.628;2022-07-23T04:29:24;15.00;;;9.60;;
2998;SDS011;1509;51.964;7.628;2022-07-23T04:31:49;19.70;;;10.30;;
2998;SDS011;1509;51.964;7.628;2022-07-23T04:34:15;16.10;;;11.00;;
2998;SDS011;1509;51.964;7.628;2022-07-23T04:36:41;15.17;;;9.77;;
2998;SDS011;1509;51.964;7.628;2022-07-23T04:39:06;14.03;;;10.20;;
2998;SDS011;1509;51.964;7.628;2022-07-23T04:41:32;18.37;;;11.23;;
2998;SDS011;1509;51.964;7.628;2022-07-23T04:43:59;13.37;;;10.87;;
2998;SDS011;1509;51.964;7.628;2022-07-23T04:46:25;12.87;;;10.30;;
2998;SDS011;1509;51.964;7.628;2022-07-23T04:48:50;15.60;;;11.03;;
2998;SDS011;1509;51.964;7.628;2022-07-23T04:51:16;17.20;;;11.20;;
2998;SDS011;1509;51.964;7.628;2022-07-23T04:53:42;15.00;;;10.37;;
2998;SDS011;1509;51.964;7.628;2022-07-23T04:56:07;15.80;;;11.47;;
2998;SDS011;1509;51.964;7.628;2022-07-23T04:58:33;16.27;;;10.97;;
2998;SDS011;1509;51.964;7.628;2022-07-23T05:00:59;15.60;;;10.83;;
2998;SDS011;1509;51.964;7.628;2022-07-23T05:03:25;14.73;;;10.77;;
2998;SDS011;1509;51.964;7.628;2022-07-23T05:05:50;16.23;;;11.27;;
2998;SDS011;1509;51.964;7.628;2022-07-23T05:08:16;16.90;;;12.47;;
2998;SDS011;1509;51.964;7.628;2022-07-23T05:10:42;17.30;;;12.17;;
2998;SDS011;1509;51.964;7.628;2022-07-23T05:13:07;17.60;;;11.07;;
2998;SDS011;1509;51.964;7.628;2022-07-23T05:15:33;14.13;;;11.67;;
2998;SDS011;1509;51.964;7.628;2022-07-23T05:17:59;17.67;;;11.27;;
2998;SDS011;1509;51.964;7.628;2022-07-23T05:20:24;13.17;;;10.80;;
2998;SDS011;1509;51.964;7.628;2022-07-23T05:22:50;16.27;;;12.27;;
2998;SDS011;1509;51.964;7.628;2022-07-23T05:25:16;17.30;;;11.67;;
2998;SDS011;1509;51.964;7.628;2022-07-23T05:27:42;17.23;;;11.27;;
2998;SDS011;1509;51.964;7.628;2022-07-23T05:30:07;16.83;;;11.40;;
2998;SDS011;1509;51.964;7.628;2022-07-23T05:32:33;13.50;;;10.87;;
2998;SDS011;1509;51.964;7.628;2022-07-23T05:35:01;15.80;;;10.37;;
2998;SDS011;1509;51.964;7.628;2022-07-23T05:37:28;19.60;;;11.27;;
2998;SDS011;1509;51.964;7.628;2022-07-23T05:39:53;14.83;;;10.30;;
2998;SDS011;1509;51.964;7.628;2022-07-23T05:42:19;14.30;;;11.13;;
2998;SDS011;1509;51.964;7.628;2022-07-23T05:44:44;15.80;;;10.80;;
2998;SDS011;1509;51.964;7.628;2022-07-23T05:47:10;14.50;;;10.63;;
2998;SDS011;1509;51.964;7.628;2022-07-23T05:49:36;13.50;;;9.43;;
2998;SDS011;1509;51.964;7.628;2022-07-23T05:52:04;15.73;;;10.90;;
2998;SDS011;1509;51.964;7.628;2022-07-23T05:54:30;13.60;;;9.77;;
2998;SDS011;1509;51.964;7.628;2022-07-23T05:56:58;11.90;;;9.27;;
2998;SDS011;1509;51.964;7.628;2022-07-23T05:59:24;14.33;;;9.53;;
2998;SDS011;1509;51.964;7.628;2022-07-23T06:01:52;15.30;;;10.33;;
2998;SDS011;1509;51.964;7.628;2022-07-23T06:04:18;15.47;;;10.30;;
2998;SDS011;1509;51.964;7.628;2022-07-23T06:06:43;12.77;;;8.50;;
2998;SDS011;1509;51.964;7.628;2022-07-23T06:09:09;13.73;;;8.67;;
2998;SDS011;1509;51.964;7.628;2022-07-23T06:11:38;13.73;;;9.13;;
2998;SDS011;1509;51.964;7.628;2022-07-23T06:14:04;17.57;;;9.00;;
2998;SDS011;1509;51.964;7.628;2022-07-23T06:16:30;12.97;;;8.87;;
2998;SDS011;1509;51.964;7.628;2022-07-23T06:18:55;12.10;;;8.80;;
2998;SDS011;1509;51.964;7.628;2022-07-23T06:21:21;15.97;;;8.60;;
2998;SDS011;1509;51.964;7.628;2022-07-23T06:23:47;13.20;;;8.73;;
2998;SDS011;1509;51.964;7.628;2022-07-23T06:26:12;11.43;;;8.10;;
2998;SDS011;1509;51.964;7.628;2022-07-23T06:28:38;11.77;;;7.93;;
2998;SDS011;1509;51.964;7.628;2022-07-23T06:31:03;11.37;;;8.30;;
2998;SDS011;1509;51.964;7.628;2022-07-23T06:33:33;13.07;;;8.40;;
2998;SDS011;1509;51.964;7.628;2022-07-23T06:35:59;22.67;;;8.53;;
2998;SDS011;1509;51.964;7.628;2022-07-23T06:38:24;14.80;;;7.90;;
2998;SDS011;1509;51.964;7.628;2022-07-23T06:40:50;14.93;;;8.97;;
2998;SDS011;1509;51.964;7.628;2022-07-23T06:43:16;12.03;;;8.70;;
2998;SDS011;1509;51.964;7.628;2022-07-23T06:45:42;13.10;;;8.47;;
2998;SDS011;1509;51.964;7.628;2022-07-23T06:48:07;10.97;;;7.43;;
2998;SDS011;1509;51.964;7.628;2022-07-23T06:50:33;9.17;;;7.70;;
2998;SDS011;1509;51.964;7.628;2022-07-23T06:52:59;11.40;;;8.00;;
2998;SDS011;1509;51.964;7.628;2022-07-23T06:55:25;14.93;;;8.63;;
2998;SDS011;1509;51.964;7.628;2022-07-23T06:57:50;10.40;;;7.10;;
2998;SDS011;1509;51.964;7.628;2022-07-23T07:00:16;13.30;;;9.10;;
2998;SDS011;1509;51.964;7.628;2022-07-23T07:02:42;7.73;;;6.73;;
2998;SDS011;1509;51.964;7.628;2022-07-23T07:05:08;12.43;;;7.47;;
2998;SDS011;1509;51.964;7.628;2022-07-23T07:07:34;11.90;;;7.60;;
2998;SDS011;1509;51.964;7.628;2022-07-23T07:10:05;8.23;;;6.80;;
2998;SDS011;1509;51.964;7.628;2022-07-23T07:12:31;10.20;;;6.97;;
2998;SDS011;1509;51.964;7.628;2022-07-23T07:14:57;7.97;;;6.27;;
2998;SDS011;1509;51.964;7.628;2022-07-23T07:17:24;8.60;;;5.50;;
2998;SDS011;1509;51.964;7.628;2022-07-23T07:19:50;8.10;;;6.00;;
2998;SDS011;1509;51.964;7.628;2022-07-23T07:22:15;13.10;;;7.07;;
2998;SDS011;1509;51.964;7.628;2022-07-23T07:24:41;10.13;;;5.23;;
2998;SDS011;1509;51.964;7.628;2022-07-23T07:27:06;6.40;;;4.77;;
2998;SDS011;1509;51.964;7.628;2022-07-23T07:29:32;8.20;;;4.73;;
2998;SDS011;1509;51.964;7.628;2022-07-23T07:31:58;8.77;;;5.13;;
2998;SDS011;1509;51.964;7.628;2022-07-23T07:34:25;6.17;;;4.80;;
2998;SDS011;1509;51.964;7.628;2022-07-23T07:36:51;8.47;;;4.97;;
2998;SDS011;1509;51.964;7.628;2022-07-23T07:39:17;7.57;;;5.23;;
2998;SDS011;1509;51.964;7.628;2022-07-23T07:41:43;9.00;;;5.07;;
2998;SDS011;1509;51.964;7.628;2022-07-23T07:44:08;7.67;;;5.97;;
2998;SDS011;1509;51.964;7.628;2022-07-23T07:46:34;8.17;;;5.27;;
2998;SDS011;1509;51.964;7.628;2022-07-23T07:48:59;6.53;;;4.47;;
2998;SDS011;1509;51.964;7.628;2022-07-23T07:51:25;8.77;;;5.13;;
2998;SDS011;1509;51.964;7.628;2022-07-23T07:53:52;15.97;;;5.47;;
2998;SDS011;1509;51.964;7.628;2022-07-23T07:56:17;11.57;;;4.90;;
2998;SDS011;1509;51.964;7.628;2022-07-23T07:58:45;7.27;;;5.50;;
2998;SDS011;1509;51.964;7.628;2022-07-23T08:01:12;8.03;;;5.00;;
2998;SDS011;1509;51.964;7.628;2022-07-23T08:03:46;8.30;;;5.33;;
2998;SDS011;1509;51.964;7.628;2022-07-23T08:06:12;7.00;;;5.20;;
2998;SDS011;1509;51.964;7.628;2022-07-23T08:08:37;5.87;;;4.57;;
2998;SDS011;1509;51.964;7.628;2022-07-23T08:11:03;8.93;;;6.10;;
2998;SDS011;1509;51.964;7.628;2022-07-23T08:13:29;8.47;;;5.30;;
2998;SDS011;1509;51.964;7.628;2022-07-23T08:15:54;6.93;;;5.77;;
2998;SDS011;1509;51.964;7.628;2022-07-23T08:18:20;5.90;;;4.90;;
2998;SDS011;1509;51.964;7.628;2022-07-23T08:20:46;6.70;;;5.67;;
2998;SDS011;1509;51.964;7.628;2022-07-23T08:23:12;6.93;;;5.13;;
2998;SDS011;1509;51.964;7.628;2022-07-23T08:25:39;5.27;;;4.00;;
2998;SDS011;1509;51.964;7.628;2022-07-23T08:28:10;8.27;;;4.70;;
2998;SDS011;1509;51.964;7.628;2022-07-23T08:30:39;7.00;;;3.67;;
2998;SDS011;1509;51.964;7.628;2022-07-23T08:33:06;5.30;;;4.80;;
2998;SDS011;1509;51.964;7.628;2022-07-23T08:38:01;5.37;;;4.23;;
2998;SDS011;1509;51.964;7.628;2022-07-23T08:40:29;6.90;;;4.77;;
2998;SDS011;1509;51.964;7.628;2022-07-23T08:42:56;6.17;;;4.40;;
2998;SDS011;1509;51.964;7.628;2022-07-23T08:45:23;4.87;;;4.27;;
2998;SDS011;1509;51.964;7.628;2022-07-23T08:47:55;11.10;;;4.47;;
2998;SDS011;1509;51.964;7.628;2022-07-23T08:50:25;9.53;;;4.70;;
2998;SDS011;1509;51.964;7.628;2022-07-23T08:52:51;7.00;;;4.53;;
2998;SDS011;1509;51.964;7.628;2022-07-23T08:55:19;5.10;;;3.70;;
2998;SDS011;1509;51.964;7.628;2022-07-23T08:57:51;5.93;;;3.87;;
2998;SDS011;1509;51.964;7.628;2022-07-23T09:00:18;6.30;;;4.30;;
2998;SDS011;1509;51.964;7.628;2022-07-23T09:02:46;5.37;;;3.70;;
2998;SDS011;1509;51.964;7.628;2022-07-23T09:05:13;5.53;;;3.47;;
2998;SDS011;1509;51.964;7.628;2022-07-23T09:13:33;4.47;;;3.13;;
2998;SDS011;1509;51.964;7.628;2022-07-23T09:16:18;4.10;;;2.83;;
2998;SDS011;1509;51.964;7.628;2022-07-23T09:18:59;3.50;;;2.73;;
2998;SDS011;1509;51.964;7.628;2022-07-23T09:21:27;4.50;;;2.83;;
2998;SDS011;1509;51.964;7.628;2022-07-23T09:26:38;5.07;;;2.30;;
2998;SDS011;1509;51.964;7.628;2022-07-23T09:31:57;3.60;;;2.40;;
2998;SDS011;1509;51.964;7.628;2022-07-23T09:34:28;3.23;;;2.20;;
2998;SDS011;1509;51.964;7.628;2022-07-23T09:37:10;3.27;;;2.77;;
2998;SDS011;1509;51.964;7.628;2022-07-23T09:39:41;2.83;;;2.50;;
2998;SDS011;1509;51.964;7.628;2022-07-23T09:45:01;3.23;;;2.37;;
2998;SDS011;1509;51.964;7.628;2022-07-23T09:47:30;5.80;;;2.70;;
2998;SDS011;1509;51.964;7.628;2022-07-23T09:52:43;3.23;;;1.90;;
2998;SDS011;1509;51.964;7.628;2022-07-23T09:55:09;2.13;;;1.40;;
2998;SDS011;1509;51.964;7.628;2022-07-23T09:57:43;3.80;;;2.00;;
2998;SDS011;1509;51.964;7.628;2022-07-23T10:00:11;3.17;;;1.83;;
2998;SDS011;1509;51.964;7.628;2022-07-23T10:02:37;3.43;;;2.57;;
2998;SDS011;1509;51.964;7.628;2022-07-23T10:05:04;3.17;;;2.20;;
2998;SDS011;1509;51.964;7.628;2022-07-23T10:07:32;2.83;;;2.00;;
2998;SDS011;1509;51.964;7.628;2022-07-23T10:10:00;3.20;;;2.57;;
2998;SDS011;1509;51.964;7.628;2022-07-23T10:12:29;3.07;;;1.97;;
2998;SDS011;1509;51.964;7.628;2022-07-23T10:14:58;2.80;;;2.10;;
2998;SDS011;1509;51.964;7.628;2022-07-23T10:17:25;4.37;;;1.90;;
2998;SDS011;1509;51.964;7.628;2022-07-23T10:19:55;2.70;;;1.90;;
2998;SDS011;1509;51.964;7.628;2022-07-23T10:22:22;3.60;;;2.00;;
2998;SDS011;1509;51.964;7.628;2022-07-23T10:24:58;4.87;;;2.40;;
2998;SDS011;1509;51.964;7.628;2022-07-23T10:38:57;2.23;;;1.50;;
2998;SDS011;1509;51.964;7.628;2022-07-23T10:41:34;1.97;;;1.40;;
2998;SDS011;1509;51.964;7.628;2022-07-23T10:44:07;2.30;;;1.50;;
2998;SDS011;1509;51.964;7.628;2022-07-23T10:46:35;3.73;;;1.70;;
2998;SDS011;1509;51.964;7.628;2022-07-23T10:49:29;2.97;;;1.73;;
2998;SDS011;1509;51.964;7.628;2022-07-23T10:54:50;2.13;;;1.83;;
2998;SDS011;1509;51.964;7.628;2022-07-23T10:57:50;3.97;;;2.10;;
2998;SDS011;1509;51.964;7.628;2022-07-23T11:00:19;3.27;;;1.80;;
2998;SDS011;1509;51.964;7.628;2022-07-23T11:02:48;2.50;;;1.70;;
2998;SDS011;1509;51.964;7.628;2022-07-23T11:05:17;2.10;;;1.70;;
2998;SDS011;1509;51.964;7.628;2022-07-23T11:10:32;3.23;;;1.50;;
2998;SDS011;1509;51.964;7.628;2022-07-23T11:18:52;5.97;;;2.20;;
2998;SDS011;1509;51.964;7.628;2022-07-23T11:24:07;3.77;;;2.20;;
2998;SDS011;1509;51.964;7.628;2022-07-23T11:34:24;2.77;;;1.40;;
2998;SDS011;1509;51.964;7.628;2022-07-23T11:36:54;2.93;;;1.63;;
2998;SDS011;1509;51.964;7.628;2022-07-23T11:39:20;2.40;;;1.60;;
2998;SDS011;1509;51.964;7.628;2022-07-23T11:41:49;2.47;;;1.50;;
2998;SDS011;1509;51.964;7.628;2022-07-23T11:44:27;2.10;;;1.70;;
2998;SDS011;1509;51.964;7.628;2022-07-23T11:47:02;2.57;;;1.50;;
2998;SDS011;1509;51.964;7.628;2022-07-23T11:49:33;3.43;;;1.90;;
2998;SDS011;1509;51.964;7.628;2022-07-23T11:52:03;2.77;;;2.10;;
2998;SDS011;1509;51.964;7.628;2022-07-23T11:54:30;2.33;;;1.80;;
2998;SDS011;1509;51.964;7.628;2022-07-23T11:56:59;2.27;;;1.60;;
2998;SDS011;1509;51.964;7.628;2022-07-23T11:59:29;3.03;;;1.73;;
2998;SDS011;1509;51.964;7.628;2022-07-23T12:02:01;3.20;;;1.50;;
2998;SDS011;1509;51.964;7.628;2022-07-23T12:07:04;3.40;;;1.67;;
2998;SDS011;1509;51.964;7.628;2022-07-23T12:09:47;1.73;;;1.53;;
2998;SDS011;1509;51.964;7.628;2022-07-23T12:12:13;2.60;;;1.80;;
2998;SDS011;1509;51.964;7.628;2022-07-23T12:14:47;2.00;;;1.50;;
2998;SDS011;1509;51.964;7.628;2022-07-23T12:17:20;2.10;;;1.50;;
2998;SDS011;1509;51.964;7.628;2022-07-23T12:19:56;3.93;;;1.60;;
2998;SDS011;1509;51.964;7.628;2022-07-23T12:22:23;2.40;;;1.90;;
2998;SDS011;1509;51.964;7.628;2022-07-23T12:24:58;2.60;;;1.67;;
2998;SDS011;1509;51.964;7.628;2022-07-23T12:27:25;4.00;;;1.93;;
2998;SDS011;1509;51.964;7.628;2022-07-23T12:29:51;1.90;;;1.60;;
2998;SDS011;1509;51.964;7.628;2022-07-23T12:32:18;3.67;;;1.67;;
2998;SDS011;1509;51.964;7.628;2022-07-23T12:35:02;2.30;;;1.50;;
2998;SDS011;1509;51.964;7.628;2022-07-23T12:37:31;1.97;;;1.37;;
2998;SDS011;1509;51.964;7.628;2022-07-23T12:40:22;2.00;;;1.60;;
2998;SDS011;1509;51.964;7.628;2022-07-23T12:45:25;2.07;;;1.40;;
2998;SDS011;1509;51.964;7.628;2022-07-23T12:47:53;3.00;;;1.40;;
2998;SDS011;1509;51.964;7.628;2022-07-23T12:50:34;3.03;;;1.70;;
2998;SDS011;1509;51.964;7.628;2022-07-23T12:53:07;3.30;;;1.57;;
2998;SDS011;1509;51.964;7.628;2022-07-23T12:55:38;2.40;;;1.60;;
2998;SDS011;1509;51.964;7.628;2022-07-23T12:58:11;3.43;;;1.50;;
2998;SDS011;1509;51.964;7.628;2022-07-23T13:05:58;2.40;;;1.67;;
2998;SDS011;1509;51.964;7.628;2022-07-23T13:08:25;2.10;;;1.67;;
2998;SDS011;1509;51.964;7.628;2022-07-23T13:10:52;2.87;;;1.97;;
2998;SDS011;1509;51.964;7.628;2022-07-23T13:13:22;2.73;;;2.03;;
2998;SDS011;1509;51.964;7.628;2022-07-23T13:15:49;3.27;;;1.80;;
2998;SDS011;1509;51.964;7.628;2022-07-23T13:18:16;2.10;;;1.50;;
2998;SDS011;1509;51.964;7.628;2022-07-23T13:20:43;1.80;;;1.40;;
2998;SDS011;1509;51.964;7.628;2022-07-23T13:23:10;2.30;;;1.70;;
2998;SDS011;1509;51.964;7.628;2022-07-23T13:25:36;2.30;;;1.43;;
2998;SDS011;1509;51.964;7.628;2022-07-23T13:28:02;3.90;;;1.83;;
2998;SDS011;1509;51.964;7.628;2022-07-23T13:30:28;1.90;;;1.70;;
2998;SDS011;1509;51.964;7.628;2022-07-23T13:32:54;3.53;;;1.90;;
2998;SDS011;1509;51.964;7.628;2022-07-23T13:35:20;2.43;;;1.80;;
2998;SDS011;1509;51.964;7.628;2022-07-23T13:37:46;4.53;;;2.03;;
2998;SDS011;1509;51.964;7.628;2022-07-23T13:40:12;2.13;;;1.87;;
2998;SDS011;1509;51.964;7.628;2022-07-23T13:42:38;4.17;;;1.73;;
2998;SDS011;1509;51.964;7.628;2022-07-23T13:45:04;4.10;;;2.20;;
2998;SDS011;1509;51.964;7.628;2022-07-23T13:47:31;2.03;;;1.70;;
2998;SDS011;1509;51.964;7.628;2022-07-23T13:49:56;4.77;;;1.90;;
2998;SDS011;1509;51.964;7.628;2022-07-23T13:52:22;3.27;;;1.97;;
2998;SDS011;1509;51.964;7.628;2022-07-23T13:54:49;4.20;;;2.23;;
2998;SDS011;1509;51.964;7.628;2022-07-23T13:57:15;3.30;;;2.10;;
2998;SDS011;1509;51.964;7.628;2022-07-23T13:59:40;3.27;;;2.50;;
2998;SDS011;1509;51.964;7.628;2022-07-23T14:02:06;2.97;;;1.80;;
2998;SDS011;1509;51.964;7.628;2022-07-23T14:04:32;2.70;;;2.10;;
2998;SDS011;1509;51.964;7.628;2022-07-23T14:06:58;2.60;;;2.00;;
2998;SDS011;1509;51.964;7.628;2022-07-23T14:09:24;2.80;;;2.40;;
2998;SDS011;1509;51.964;7.628;2022-07-23T14:11:50;2.80;;;2.20;;
2998;SDS011;1509;51.964;7.628;2022-07-23T14:14:16;4.73;;;2.40;;
2998;SDS011;1509;51.964;7.628;2022-07-23T14:16:42;3.93;;;2.50;;
2998;SDS011;1509;51.964;7.628;2022-07-23T14:19:08;3.60;;;2.10;;
2998;SDS011;1509;51.964;7.628;2022-07-23T14:21:34;3.37;;;2.93;;
2998;SDS011;1509;51.964;7.628;2022-07-23T14:24:00;4.47;;;2.50;;
2998;SDS011;1509;51.964;7.628;2022-07-23T14:26:25;4.33;;;2.30;;
2998;SDS011;1509;51.964;7.628;2022-07-23T14:28:52;3.30;;;2.30;;
2998;SDS011;1509;51.964;7.628;2022-07-23T14:31:17;4.13;;;2.50;;
2998;SDS011;1509;51.964;7.628;2022-07-23T14:33:43;3.43;;;2.40;;
2998;SDS011;1509;51.964;7.628;2022-07-23T14:36:08;4.23;;;2.80;;
2998;SDS011;1509;51.964;7.628;2022-07-23T14:38:34;3.20;;;2.63;;
2998;SDS011;1509;51.964;7.628;2022-07-23T14:41:00;3.93;;;2.47;;
2998;SDS011;1509;51.964;7.628;2022-07-23T14:43:25;3.13;;;2.37;;
2998;SDS011;1509;51.964;7.628;2022-07-23T14:45:51;3.20;;;2.70;;
2998;SDS011;1509;51.964;7.628;2022-07-23T14:48:17;4.53;;;2.63;;
2998;SDS011;1509;51.964;7.628;2022-07-23T14:50:42;3.90;;;2.43;;
2998;SDS011;1509;51.964;7.628;2022-07-23T14:53:08;3.80;;;2.60;;
2998;SDS011;1509;51.964;7.628;2022-07-23T14:55:33;3.83;;;2.43;;
2998;SDS011;1509;51.964;7.628;2022-07-23T14:57:59;2.87;;;2.17;;
2998;SDS011;1509;51.964;7.628;2022-07-23T15:00:25;2.73;;;2.37;;
2998;SDS011;1509;51.964;7.628;2022-07-23T15:02:51;3.77;;;2.40;;
2998;SDS011;1509;51.964;7.628;2022-07-23T15:05:17;3.13;;;2.63;;
2998;SDS011;1509;51.964;7.628;2022-07-23T15:07:45;2.93;;;2.20;;
2998;SDS011;1509;51.964;7.628;2022-07-23T15:10:12;6.13;;;2.80;;
2998;SDS011;1509;51.964;7.628;2022-07-23T15:12:38;4.20;;;2.23;;
2998;SDS011;1509;51.964;7.628;2022-07-23T15:15:04;3.10;;;2.60;;
2998;SDS011;1509;51.964;7.628;2022-07-23T15:17:30;4.83;;;2.60;;
2998;SDS011;1509;51.964;7.628;2022-07-23T15:19:57;3.57;;;2.47;;
2998;SDS011;1509;51.964;7.628;2022-07-23T15:22:22;7.20;;;2.40;;
2998;SDS011;1509;51.964;7.628;2022-07-23T15:24:48;4.07;;;2.50;;
2998;SDS011;1509;51.964;7.628;2022-07-23T15:27:14;4.00;;;2.50;;
2998;SDS011;1509;51.964;7.628;2022-07-23T15:29:41;5.70;;;2.73;;
2998;SDS011;1509;51.964;7.628;2022-07-23T15:32:07;3.20;;;2.30;;
2998;SDS011;1509;51.964;7.628;2022-07-23T15:34:32;4.37;;;2.20;;
2998;SDS011;1509;51.964;7.628;2022-07-23T15:37:01;4.57;;;2.10;;
2998;SDS011;1509;51.964;7.628;2022-07-23T15:39:27;3.73;;;2.13;;
2998;SDS011;1509;51.964;7.628;2022-07-23T15:41:53;3.00;;;2.47;;
2998;SDS011;1509;51.964;7.628;2022-07-23T15:44:18;4.50;;;2.10;;
2998;SDS011;1509;51.964;7.628;2022-07-23T15:46:44;3.83;;;2.37;;
2998;SDS011;1509;51.964;7.628;2022-07-23T15:49:10;3.63;;;2.20;;
2998;SDS011;1509;51.964;7.628;2022-07-23T15:51:38;5.20;;;2.00;;
2998;SDS011;1509;51.964;7.628;2022-07-23T15:54:03;3.43;;;2.10;;
2998;SDS011;1509;51.964;7.628;2022-07-23T15:56:29;4.67;;;2.50;;
2998;SDS011;1509;51.964;7.628;2022-07-23T15:59:01;3.80;;;2.43;;
2998;SDS011;1509;51.964;7.628;2022-07-23T16:01:29;4.83;;;2.70;;
2998;SDS011;1509;51.964;7.628;2022-07-23T16:03:55;3.47;;;2.97;;
2998;SDS011;1509;51.964;7.628;2022-07-23T16:06:25;4.00;;;2.93;;
2998;SDS011;1509;51.964;7.628;2022-07-23T16:08:51;3.27;;;2.50;;